createdAt,value
2023-04-25T00:01:50.270Z,3.83
2023-04-25T00:04:17.338Z,4.22
2023-04-25T00:06:44.058Z,4.13
2023-04-25T00:09:12.093Z,4.00
2023-04-25T00:11:39.019Z,4.15
2023-04-25T00:14:05.645Z,4.13
2023-04-25T00:16:35.043Z,3.50
2023-04-25T00:19:02.549Z,5.45
2023-04-25T00:21:29.342Z,6.03
2023-04-25T00:23:56.227Z,5.72
2023-04-25T00:26:22.718Z,6.30
2023-04-25T00:28:49.335Z,6.30
2023-04-25T00:31:16.073Z,7.43
2023-04-25T00:33:42.612Z,7.13
2023-04-25T00:36:09.225Z,7.47
2023-04-25T00:38:35.817Z,9.05
2023-04-25T00:41:02.299Z,9.50
2023-04-25T00:43:28.849Z,9.45
2023-04-25T00:45:55.340Z,10.90
2023-04-25T00:48:22.816Z,9.93
2023-04-25T00:50:54.607Z,11.32
2023-04-25T00:53:21.688Z,11.93
2023-04-25T00:55:48.566Z,11.25
2023-04-25T00:58:15.101Z,10.55
2023-04-25T01:00:42.440Z,9.57
2023-04-25T01:03:09.043Z,8.88
2023-04-25T01:05:35.684Z,8.90
2023-04-25T01:08:02.180Z,8.85
2023-04-25T01:10:28.714Z,9.15
2023-04-25T01:12:55.514Z,8.55
2023-04-25T01:15:22.019Z,7.25
2023-04-25T01:17:50.476Z,8.52
2023-04-25T01:20:17.141Z,7.78
2023-04-25T01:22:43.989Z,7.55
2023-04-25T01:25:11.529Z,6.28
2023-04-25T01:27:38.049Z,6.18
2023-04-25T01:30:04.981Z,5.97
2023-04-25T01:32:39.256Z,6.03
2023-04-25T01:35:12.285Z,5.07
2023-04-25T01:37:39.302Z,4.75
2023-04-25T01:40:06.614Z,4.03
2023-04-25T01:42:34.078Z,3.85
2023-04-25T01:45:00.592Z,3.75
2023-04-25T01:47:27.134Z,3.65
2023-04-25T01:49:53.638Z,3.55
2023-04-25T01:52:20.122Z,3.50
2023-04-25T01:54:46.732Z,4.00
2023-04-25T01:57:13.308Z,3.30
2023-04-25T01:59:39.816Z,3.88
2023-04-25T02:02:06.378Z,3.33
2023-04-25T02:04:33.095Z,3.42
2023-04-25T02:06:59.802Z,2.92
2023-04-25T02:09:26.406Z,3.47
2023-04-25T02:11:53.462Z,3.03
2023-04-25T02:14:19.958Z,3.42
2023-04-25T02:16:47.583Z,2.13
2023-04-25T02:19:14.184Z,2.15
2023-04-25T02:21:41.808Z,2.30
2023-04-25T02:24:08.638Z,1.88
2023-04-25T02:26:35.140Z,1.85
2023-04-25T02:29:02.337Z,2.08
2023-04-25T02:31:28.854Z,2.08
2023-04-25T02:33:55.350Z,1.98
2023-04-25T02:36:21.836Z,2.08
2023-04-25T02:38:48.397Z,2.20
2023-04-25T02:41:14.957Z,1.83
2023-04-25T02:43:41.547Z,2.35
2023-04-25T02:46:08.183Z,2.13
2023-04-25T02:48:34.701Z,2.28
2023-04-25T02:51:01.266Z,2.30
2023-04-25T02:53:27.772Z,2.85
2023-04-25T02:55:54.262Z,3.10
2023-04-25T02:58:20.817Z,3.42
2023-04-25T03:00:47.306Z,2.05
2023-04-25T03:03:14.254Z,2.88
2023-04-25T03:05:40.843Z,3.70
2023-04-25T03:08:07.321Z,3.13
2023-04-25T03:10:34.093Z,2.90
2023-04-25T03:13:00.639Z,3.30
2023-04-25T03:15:27.306Z,2.03
2023-04-25T03:17:54.002Z,2.38
2023-04-25T03:20:20.616Z,2.55
2023-04-25T03:22:47.119Z,1.95
2023-04-25T03:25:13.585Z,2.10
2023-04-25T03:27:40.081Z,1.73
2023-04-25T03:30:07.628Z,1.85
2023-04-25T03:32:34.210Z,2.20
2023-04-25T03:35:00.737Z,2.08
2023-04-25T03:37:27.226Z,1.67
2023-04-25T03:39:53.736Z,2.15
2023-04-25T03:42:20.886Z,1.70
2023-04-25T03:44:47.407Z,1.73
2023-04-25T03:47:13.876Z,1.73
2023-04-25T03:49:40.325Z,1.73
2023-04-25T03:52:06.813Z,1.73
2023-04-25T03:54:33.327Z,1.60
2023-04-25T03:56:59.888Z,1.65
2023-04-25T03:59:27.244Z,1.58
2023-04-25T04:01:53.754Z,1.55
2023-04-25T04:04:20.440Z,1.48
2023-04-25T04:06:47.780Z,1.13
2023-04-25T04:09:14.271Z,1.30
2023-04-25T04:11:40.898Z,1.50
2023-04-25T04:14:07.670Z,1.13
2023-04-25T04:16:34.735Z,1.13
2023-04-25T04:19:01.316Z,1.30
2023-04-25T04:21:28.435Z,1.40
2023-04-25T04:23:55.498Z,1.00
2023-04-25T04:26:24.480Z,1.50
2023-04-25T04:28:55.313Z,2.83
2023-04-25T04:31:22.619Z,2.67
2023-04-25T04:33:49.572Z,1.40
2023-04-25T04:36:16.805Z,1.27
2023-04-25T04:38:43.463Z,1.42
2023-04-25T04:41:10.010Z,1.38
2023-04-25T04:43:36.505Z,1.45
2023-04-25T04:46:04.665Z,1.58
2023-04-25T04:48:33.718Z,1.40
2023-04-25T04:51:00.200Z,3.25
2023-04-25T04:53:26.861Z,2.78
2023-04-25T04:55:53.389Z,1.75
2023-04-25T04:58:19.937Z,1.42
2023-04-25T05:00:46.623Z,1.73
2023-04-25T05:03:13.397Z,1.33
2023-04-25T05:05:41.157Z,1.65
2023-04-25T05:08:07.613Z,1.30
2023-04-25T05:10:34.185Z,1.50
2023-04-25T05:13:00.847Z,1.67
2023-04-25T05:15:27.422Z,1.25
2023-04-25T05:17:53.902Z,1.00
2023-04-25T05:20:20.832Z,1.50
2023-04-25T05:22:47.285Z,1.38
2023-04-25T05:25:13.801Z,1.98
2023-04-25T05:27:40.277Z,1.60
2023-04-25T05:30:07.212Z,1.90
2023-04-25T05:32:33.777Z,1.63
2023-04-25T05:35:00.809Z,1.60
2023-04-25T05:37:27.690Z,3.85
2023-04-25T05:39:54.432Z,2.28
2023-04-25T05:42:20.910Z,1.67
2023-04-25T05:44:47.431Z,2.60
2023-04-25T05:47:13.924Z,2.13
2023-04-25T05:49:40.465Z,2.38
2023-04-25T05:52:07.130Z,3.67
2023-04-25T05:54:33.687Z,2.28
2023-04-25T05:57:00.167Z,1.85
2023-04-25T05:59:26.891Z,1.92
2023-04-25T06:01:53.381Z,3.08
2023-04-25T06:04:20.288Z,3.15
2023-04-25T06:06:46.902Z,5.28
2023-04-25T06:09:14.490Z,3.63
2023-04-25T06:11:41.096Z,2.75
2023-04-25T06:14:08.494Z,3.28
2023-04-25T06:16:35.255Z,3.13
2023-04-25T06:19:01.926Z,2.67
2023-04-25T06:21:28.633Z,2.67
2023-04-25T06:23:55.144Z,3.55
2023-04-25T06:26:21.684Z,3.38
2023-04-25T06:28:48.182Z,2.95
2023-04-25T06:31:14.750Z,3.92
2023-04-25T06:33:41.294Z,4.43
2023-04-25T06:36:07.987Z,2.90
2023-04-25T06:38:35.930Z,2.33
2023-04-25T06:41:02.395Z,3.33
2023-04-25T06:43:28.894Z,3.50
2023-04-25T06:45:55.369Z,3.43
2023-04-25T06:48:21.857Z,1.98
2023-04-25T06:50:48.477Z,3.00
2023-04-25T06:53:15.105Z,4.93
2023-04-25T06:55:41.609Z,5.20
2023-04-25T06:58:08.414Z,5.17
2023-04-25T07:00:35.015Z,3.63
2023-04-25T07:03:01.800Z,4.13
2023-04-25T07:05:28.475Z,3.80
2023-04-25T07:07:55.063Z,2.33
2023-04-25T07:10:22.440Z,2.35
2023-04-25T07:12:49.067Z,3.60
2023-04-25T07:15:15.645Z,3.38
2023-04-25T07:17:42.193Z,1.85
2023-04-25T07:20:10.371Z,2.60
2023-04-25T07:22:37.001Z,2.75
2023-04-25T07:25:05.299Z,3.95
2023-04-25T07:27:31.831Z,3.50
2023-04-25T07:29:58.571Z,3.50
2023-04-25T07:32:25.164Z,2.90
2023-04-25T07:34:52.261Z,2.90
2023-04-25T07:37:19.891Z,2.63
2023-04-25T07:39:49.548Z,2.33
2023-04-25T07:42:16.037Z,2.65
2023-04-25T07:44:43.813Z,2.30
2023-04-25T07:47:10.398Z,3.13
2023-04-25T07:49:37.272Z,2.97
2023-04-25T07:52:04.286Z,3.40
2023-04-25T07:54:30.952Z,3.60
2023-04-25T07:56:57.501Z,3.72
2023-04-25T07:59:24.042Z,3.33
2023-04-25T08:01:50.586Z,3.95
2023-04-25T08:04:17.434Z,3.35
2023-04-25T08:06:44.371Z,2.92
2023-04-25T08:09:11.084Z,3.83
2023-04-25T08:11:37.806Z,4.13
2023-04-25T08:14:04.276Z,3.70
2023-04-25T08:16:31.510Z,2.58
2023-04-25T08:18:58.120Z,3.88
2023-04-25T08:21:24.608Z,2.38
2023-04-25T08:23:52.584Z,3.25
2023-04-25T08:26:19.162Z,2.97
2023-04-25T08:28:45.617Z,3.03
2023-04-25T08:31:12.109Z,3.92
2023-04-25T08:33:38.914Z,3.55
2023-04-25T08:36:05.667Z,3.15
2023-04-25T08:38:32.655Z,2.05
2023-04-25T08:40:59.098Z,2.33
2023-04-25T08:43:25.813Z,2.95
2023-04-25T08:45:52.588Z,2.88
2023-04-25T08:48:19.318Z,2.72
2023-04-25T08:50:55.523Z,2.40
2023-04-25T08:53:23.911Z,2.15
2023-04-25T08:55:50.406Z,2.17
2023-04-25T08:58:17.040Z,1.75
2023-04-25T09:00:43.569Z,2.58
2023-04-25T09:03:10.240Z,2.25
2023-04-25T09:05:37.267Z,2.63
2023-04-25T09:08:03.796Z,2.30
2023-04-25T09:13:11.466Z,3.05
2023-04-25T09:16:04.475Z,19.55
2023-04-25T09:18:31.132Z,3.10
2023-04-25T09:21:13.164Z,2.65
2023-04-25T09:23:47.324Z,2.70
2023-04-25T09:26:18.113Z,2.80
2023-04-25T09:28:44.664Z,2.13
2023-04-25T09:31:11.750Z,3.05
2023-04-25T09:33:38.306Z,2.75
2023-04-25T09:36:08.753Z,2.70
2023-04-25T09:38:42.765Z,2.75
2023-04-25T09:41:09.891Z,2.88
2023-04-25T09:43:36.567Z,2.05
2023-04-25T09:46:03.324Z,2.25
2023-04-25T09:48:30.073Z,2.08
2023-04-25T09:51:06.270Z,2.90
2023-04-25T09:53:33.989Z,3.50
2023-04-25T09:56:00.927Z,3.47
2023-04-25T09:58:28.056Z,3.55
2023-04-25T10:00:55.481Z,2.10
2023-04-25T10:03:22.299Z,4.03
2023-04-25T10:05:49.362Z,2.45
2023-04-25T10:08:16.049Z,2.20
2023-04-25T10:10:42.564Z,2.55
2023-04-25T10:13:09.893Z,1.63
2023-04-25T10:15:39.043Z,2.28
2023-04-25T10:18:07.535Z,1.45
2023-04-25T10:20:34.123Z,1.80
2023-04-25T10:23:07.994Z,1.70
2023-04-25T10:25:34.622Z,1.13
2023-04-25T10:28:01.648Z,2.17
2023-04-25T10:30:28.150Z,1.60
2023-04-25T10:32:55.914Z,3.05
2023-04-25T10:35:26.318Z,1.80
2023-04-25T10:38:03.698Z,1.45
2023-04-25T10:40:30.211Z,1.58
2023-04-25T10:42:57.242Z,2.47
2023-04-25T10:45:23.816Z,1.33
2023-04-25T10:47:50.549Z,5.40
2023-04-25T10:50:19.935Z,3.50
2023-04-25T10:52:46.470Z,2.30
2023-04-25T10:55:13.163Z,2.35
2023-04-25T10:57:43.056Z,2.25
2023-04-25T11:00:19.784Z,2.00
2023-04-25T11:02:53.415Z,1.85
2023-04-25T11:05:21.478Z,2.78
2023-04-25T11:08:03.951Z,3.10
2023-04-25T11:10:34.166Z,4.47
2023-04-25T11:13:01.778Z,1.85
2023-04-25T11:15:28.367Z,2.03
2023-04-25T11:17:55.265Z,2.58
2023-04-25T11:20:22.245Z,1.80
2023-04-25T11:22:50.331Z,1.80
2023-04-25T11:25:17.833Z,1.40
2023-04-25T11:27:51.325Z,1.13
2023-04-25T11:30:18.029Z,1.30
2023-04-25T11:32:44.567Z,1.30
2023-04-25T11:35:11.341Z,1.00
2023-04-25T11:37:37.998Z,1.10
2023-04-25T11:40:04.851Z,2.70
2023-04-25T11:42:31.314Z,0.93
2023-04-25T11:44:57.795Z,1.50
2023-04-25T11:47:33.638Z,1.30
2023-04-25T11:50:00.858Z,1.20
2023-04-25T11:52:37.684Z,1.23
2023-04-25T11:55:09.709Z,1.23
2023-04-25T11:57:38.853Z,1.00
2023-04-25T12:00:09.708Z,1.42
2023-04-25T12:02:37.100Z,1.77
2023-04-25T12:05:21.736Z,1.08
2023-04-25T12:07:50.868Z,1.52
2023-04-25T12:10:17.819Z,1.50
2023-04-25T12:12:44.859Z,1.98
2023-04-25T12:15:12.192Z,1.38
2023-04-25T12:17:42.130Z,1.85
2023-04-25T12:20:09.829Z,2.10
2023-04-25T12:22:37.498Z,2.22
2023-04-25T12:25:05.311Z,1.42
2023-04-25T12:27:32.012Z,2.03
2023-04-25T12:29:58.685Z,1.67
2023-04-25T12:32:25.295Z,2.30
2023-04-25T12:34:51.810Z,2.08
2023-04-25T12:37:18.434Z,1.90
2023-04-25T12:39:45.313Z,1.77
2023-04-25T12:42:13.386Z,2.13
2023-04-25T12:44:40.291Z,2.25
2023-04-25T12:47:06.895Z,1.48
2023-04-25T12:49:33.474Z,2.20
2023-04-25T12:51:59.936Z,2.55
2023-04-25T12:54:27.045Z,1.95
2023-04-25T12:56:53.794Z,1.90
2023-04-25T12:59:21.648Z,2.67
2023-04-25T13:01:48.383Z,2.60
2023-04-25T13:04:15.043Z,2.42
2023-04-25T13:06:41.662Z,2.33
2023-04-25T13:09:08.187Z,2.50
2023-04-25T13:11:34.680Z,2.55
2023-04-25T13:14:01.525Z,2.92
2023-04-25T13:16:28.393Z,1.80
2023-04-25T13:18:54.975Z,2.50
2023-04-25T13:21:21.544Z,1.83
2023-04-25T13:23:48.287Z,1.83
2023-04-25T13:26:14.824Z,2.63
2023-04-25T13:28:43.612Z,2.42
2023-04-25T13:31:11.407Z,1.65
2023-04-25T13:33:37.930Z,1.40
2023-04-25T13:36:04.943Z,1.48
2023-04-25T13:38:31.680Z,1.63
2023-04-25T13:40:58.317Z,1.58
2023-04-25T13:43:24.797Z,1.92
2023-04-25T13:45:51.436Z,1.40
2023-04-25T13:48:18.840Z,2.08
2023-04-25T13:50:45.361Z,2.28
2023-04-25T13:53:12.027Z,1.63
2023-04-25T13:55:38.584Z,2.08
2023-04-25T13:58:08.805Z,1.65
2023-04-25T14:00:36.845Z,2.10
2023-04-25T14:03:06.061Z,2.28
2023-04-25T14:05:32.668Z,2.08
2023-04-25T14:08:00.404Z,2.63
2023-04-25T14:10:28.629Z,2.85
2023-04-25T14:12:55.168Z,2.63
2023-04-25T14:15:21.856Z,2.25
2023-04-25T14:17:49.497Z,2.30
2023-04-25T14:20:16.431Z,2.00
2023-04-25T14:22:44.812Z,2.08
2023-04-25T14:25:11.407Z,2.00
2023-04-25T14:27:37.913Z,2.10
2023-04-25T14:30:05.556Z,1.90
2023-04-25T14:32:33.202Z,1.90
2023-04-25T14:34:59.722Z,1.98
2023-04-25T14:37:26.811Z,2.28
2023-04-25T14:39:53.398Z,2.55
2023-04-25T14:42:20.078Z,2.38
2023-04-25T14:44:46.666Z,2.50
2023-04-25T14:47:13.181Z,2.50
2023-04-25T14:49:39.669Z,1.75
2023-04-25T14:52:06.250Z,2.08
2023-04-25T14:54:33.371Z,2.35
2023-04-25T14:56:59.897Z,3.00
2023-04-25T14:59:26.647Z,2.50
2023-04-25T15:01:54.111Z,1.92
2023-04-25T15:04:20.906Z,1.67
2023-04-25T15:06:47.666Z,2.22
2023-04-25T15:09:14.216Z,1.60
2023-04-25T15:11:40.885Z,1.30
2023-04-25T15:14:07.493Z,2.45
2023-04-25T15:16:34.078Z,2.22
2023-04-25T15:19:00.682Z,2.03
2023-04-25T15:21:27.594Z,1.50
2023-04-25T15:23:54.231Z,1.92
2023-04-25T15:26:20.867Z,1.80
2023-04-25T15:28:47.446Z,1.80
2023-04-25T15:31:14.069Z,1.65
2023-04-25T15:33:40.697Z,2.05
2023-04-25T15:36:07.402Z,2.10
2023-04-25T15:38:33.883Z,1.90
2023-04-25T15:41:00.400Z,2.22
2023-04-25T15:43:26.958Z,2.17
2023-04-25T15:45:53.599Z,2.05
2023-04-25T15:48:20.323Z,1.40
2023-04-25T15:50:47.397Z,1.85
2023-04-25T15:53:13.935Z,1.73
2023-04-25T15:55:40.493Z,2.40
2023-04-25T15:58:07.122Z,2.00
2023-04-25T16:00:36.294Z,1.73
2023-04-25T16:03:03.593Z,1.30
2023-04-25T16:05:30.225Z,2.45
2023-04-25T16:07:56.744Z,1.95
2023-04-25T16:10:23.881Z,2.50
2023-04-25T16:12:50.684Z,1.75
2023-04-25T16:15:17.413Z,2.47
2023-04-25T16:17:43.936Z,1.45
2023-04-25T16:20:12.720Z,2.22
2023-04-25T16:22:39.719Z,2.17
2023-04-25T16:25:06.527Z,2.03
2023-04-25T16:27:34.805Z,2.03
2023-04-25T16:30:01.853Z,1.27
2023-04-25T16:32:28.437Z,1.80
2023-04-25T16:34:56.012Z,1.65
2023-04-25T16:37:24.414Z,1.10
2023-04-25T16:39:51.499Z,1.00
2023-04-25T16:42:18.363Z,1.00
2023-04-25T16:44:44.881Z,1.10
2023-04-25T16:49:39.203Z,1.00
2023-04-25T16:52:05.791Z,1.00
2023-04-25T16:54:32.306Z,1.40
2023-04-25T16:56:58.819Z,0.98
2023-04-25T16:59:25.495Z,1.10
2023-04-25T17:01:52.047Z,1.42
2023-04-25T17:04:18.659Z,1.13
2023-04-25T17:06:45.242Z,1.08
2023-04-25T17:09:12.312Z,0.90
2023-04-25T17:11:38.880Z,1.05
2023-04-25T17:14:06.148Z,1.08
2023-04-25T17:16:36.682Z,1.00
2023-04-25T17:19:06.464Z,1.40
2023-04-25T17:21:33.177Z,1.50
2023-04-25T17:23:59.777Z,1.27
2023-04-25T17:26:26.550Z,1.67
2023-04-25T17:28:53.952Z,1.75
2023-04-25T17:31:21.338Z,1.98
2023-04-25T17:33:47.929Z,1.40
2023-04-25T17:36:15.170Z,1.40
2023-04-25T17:38:41.743Z,0.98
2023-04-25T17:41:09.502Z,1.30
2023-04-25T17:43:36.390Z,1.42
2023-04-25T17:46:03.300Z,1.40
2023-04-25T17:48:31.754Z,2.33
2023-04-25T17:50:58.636Z,2.20
2023-04-25T17:53:25.478Z,1.52
2023-04-25T17:55:52.015Z,2.25
2023-04-25T17:58:18.509Z,1.55
2023-04-25T18:00:45.019Z,2.92
2023-04-25T18:03:11.650Z,3.58
2023-04-25T18:05:38.513Z,2.70
2023-04-25T18:08:06.796Z,2.38
2023-04-25T18:10:34.428Z,2.55
2023-04-25T18:13:01.536Z,5.05
2023-04-25T18:15:28.966Z,5.13
2023-04-25T18:17:57.265Z,3.85
2023-04-25T18:20:23.887Z,3.60
2023-04-25T18:22:50.826Z,4.97
2023-04-25T18:25:18.276Z,4.43
2023-04-25T18:27:45.954Z,4.07
2023-04-25T18:30:12.763Z,3.42
2023-04-25T18:32:39.958Z,2.53
2023-04-25T18:35:07.053Z,8.70
2023-04-25T18:37:33.885Z,8.10
2023-04-25T18:40:06.127Z,5.00
2023-04-25T18:42:33.257Z,7.38
2023-04-25T18:44:59.780Z,7.22
2023-04-25T18:47:26.402Z,6.47
2023-04-25T18:49:52.944Z,6.18
2023-04-25T18:52:19.753Z,7.38
2023-04-25T18:54:46.425Z,7.63
2023-04-25T18:57:15.211Z,8.55
2023-04-25T18:59:42.534Z,6.72
2023-04-25T19:02:09.144Z,5.78
2023-04-25T19:04:36.104Z,5.28
2023-04-25T19:07:04.104Z,4.82
2023-04-25T19:09:30.728Z,5.80
2023-04-25T19:11:57.689Z,6.32
2023-04-25T19:14:24.273Z,6.93
2023-04-25T19:16:50.903Z,7.90
2023-04-25T19:19:17.493Z,7.70
2023-04-25T19:21:44.048Z,7.40
2023-04-25T19:24:11.490Z,6.80
2023-04-25T19:26:38.315Z,6.43
2023-04-25T19:29:06.131Z,6.28
2023-04-25T19:31:34.199Z,7.47
2023-04-25T19:34:00.861Z,7.30
2023-04-25T19:36:28.944Z,5.15
2023-04-25T19:39:01.153Z,5.10
2023-04-25T19:41:30.825Z,4.68
2023-04-25T19:43:57.589Z,3.67
2023-04-25T19:46:25.631Z,4.10
2023-04-25T19:48:52.372Z,4.22
2023-04-25T19:51:22.781Z,4.57
2023-04-25T19:53:49.901Z,4.22
2023-04-25T19:56:16.792Z,3.95
2023-04-25T19:58:46.701Z,4.60
2023-04-25T20:01:13.470Z,3.93
2023-04-25T20:03:40.413Z,4.10
2023-04-25T20:06:07.326Z,4.05
2023-04-25T20:08:38.321Z,3.83
2023-04-25T20:11:10.724Z,3.33
2023-04-25T20:13:37.524Z,4.13
2023-04-25T20:16:04.880Z,3.72
2023-04-25T20:18:31.529Z,3.58
2023-04-25T20:20:58.681Z,5.47
2023-04-25T20:23:25.222Z,3.93
2023-04-25T20:25:51.755Z,3.30
2023-04-25T20:28:18.392Z,4.25
2023-04-25T20:30:44.961Z,4.22
2023-04-25T20:33:11.597Z,2.25
2023-04-25T20:35:38.355Z,2.73
2023-04-25T20:38:05.121Z,2.40
2023-04-25T20:40:31.929Z,3.00
2023-04-25T20:43:01.704Z,3.83
2023-04-25T20:45:32.089Z,2.20
2023-04-25T20:47:59.411Z,2.87
2023-04-25T20:50:26.333Z,1.70
2023-04-25T20:52:53.374Z,2.30
2023-04-25T20:55:21.210Z,3.57
2023-04-25T20:57:47.888Z,3.60
2023-04-25T21:00:21.046Z,1.87
2023-04-25T21:02:48.861Z,2.20
2023-04-25T21:05:17.698Z,2.33
2023-04-25T21:07:45.892Z,2.17
2023-04-25T21:10:15.030Z,1.60
2023-04-25T21:12:44.578Z,2.10
2023-04-25T21:15:12.783Z,3.08
2023-04-25T21:17:39.565Z,4.77
2023-04-25T21:20:12.382Z,3.20
2023-04-25T21:22:44.780Z,1.95
2023-04-25T21:25:11.393Z,2.08
2023-04-25T21:27:38.017Z,2.47
2023-04-25T21:30:04.785Z,3.20
2023-04-25T21:32:31.249Z,3.47
2023-04-25T21:34:57.839Z,2.60
2023-04-25T21:37:24.319Z,2.30
2023-04-25T21:39:51.039Z,2.80
2023-04-25T21:42:18.029Z,1.77
2023-04-25T21:44:44.514Z,2.17
2023-04-25T21:47:11.171Z,2.37
2023-04-25T21:49:37.662Z,2.50
2023-04-25T21:52:04.197Z,2.13
2023-04-25T21:54:30.774Z,1.97
2023-04-25T21:56:58.299Z,2.73
2023-04-25T21:59:25.006Z,2.03
2023-04-25T22:01:52.392Z,2.27
2023-04-25T22:04:19.192Z,2.13
2023-04-25T22:06:47.411Z,2.67
2023-04-25T22:09:14.816Z,2.33
2023-04-25T22:11:42.914Z,1.70
2023-04-25T22:14:10.074Z,2.07
2023-04-25T22:16:37.609Z,2.80
2023-04-25T22:19:04.469Z,2.60
2023-04-25T22:21:30.929Z,2.80
2023-04-25T22:23:57.463Z,3.53
2023-04-25T22:26:25.500Z,3.30
2023-04-25T22:28:52.394Z,2.20
2023-04-25T22:31:19.750Z,2.67
2023-04-25T22:33:47.417Z,2.30
2023-04-25T22:36:14.335Z,2.40
2023-04-25T22:38:41.466Z,2.37
2023-04-25T22:41:09.044Z,2.30
2023-04-25T22:43:37.211Z,2.80
2023-04-25T22:46:04.553Z,2.17
2023-04-25T22:48:31.093Z,2.47
2023-04-25T22:51:07.023Z,2.60
2023-04-25T22:53:35.116Z,2.10
2023-04-25T22:56:02.075Z,2.33
2023-04-25T22:58:28.798Z,2.23
2023-04-25T23:00:55.812Z,2.60
2023-04-25T23:03:22.764Z,3.00
2023-04-25T23:05:49.716Z,2.77
2023-04-25T23:08:17.223Z,3.33
2023-04-25T23:10:44.074Z,2.57
2023-04-25T23:13:10.767Z,1.93
2023-04-25T23:15:37.452Z,2.17
2023-04-25T23:18:04.135Z,2.60
2023-04-25T23:20:32.130Z,2.60
2023-04-25T23:22:59.098Z,2.07
2023-04-25T23:25:26.860Z,2.20
2023-04-25T23:27:53.356Z,2.77
2023-04-25T23:30:20.455Z,2.23
2023-04-25T23:32:46.991Z,2.03
2023-04-25T23:35:13.530Z,2.50
2023-04-25T23:37:40.748Z,2.57
2023-04-25T23:40:10.287Z,2.37
2023-04-25T23:42:37.251Z,2.20
2023-04-25T23:45:07.979Z,2.10
2023-04-25T23:47:37.720Z,3.10
2023-04-25T23:50:04.586Z,2.30
2023-04-25T23:52:31.246Z,1.70
2023-04-25T23:54:57.774Z,2.10
2023-04-25T23:57:24.342Z,2.00
2023-04-25T23:59:51.035Z,2.17
